createdAt,value
2022-09-21T00:00:40.716Z,12.40
2022-09-21T00:03:09.869Z,12.40
2022-09-21T00:05:38.525Z,12.40
2022-09-21T00:08:08.167Z,12.40
2022-09-21T00:10:36.776Z,12.40
2022-09-21T00:13:06.753Z,12.40
2022-09-21T00:15:35.300Z,12.50
2022-09-21T00:18:03.971Z,12.50
2022-09-21T00:20:32.548Z,12.50
2022-09-21T00:23:01.080Z,12.50
2022-09-21T00:25:29.713Z,12.50
2022-09-21T00:27:58.267Z,12.70
2022-09-21T00:30:26.797Z,12.50
2022-09-21T00:33:05.905Z,12.40
2022-09-21T00:35:25.609Z,12.40
2022-09-21T00:37:54.259Z,12.30
2022-09-21T00:40:22.852Z,12.30
2022-09-21T00:42:51.723Z,12.10
2022-09-21T00:45:23.387Z,12.10
2022-09-21T00:47:53.576Z,12.10
2022-09-21T00:50:24.837Z,12.00
2022-09-21T00:52:56.495Z,11.90
2022-09-21T00:55:28.079Z,11.90
2022-09-21T00:57:59.721Z,11.90
2022-09-21T01:00:28.354Z,11.90
2022-09-21T01:02:59.377Z,11.80
2022-09-21T01:05:31.045Z,11.80
2022-09-21T01:08:07.368Z,11.80
2022-09-21T01:10:47.317Z,11.70
2022-09-21T01:13:18.988Z,11.70
2022-09-21T01:16:14.591Z,11.70
2022-09-21T01:18:47.509Z,11.70
2022-09-21T01:21:27.042Z,11.60
2022-09-21T01:24:10.603Z,11.60
2022-09-21T01:27:15.253Z,11.70
2022-09-21T01:29:46.883Z,11.60
2022-09-21T01:32:58.613Z,11.60
2022-09-21T01:35:50.929Z,11.50
2022-09-21T01:38:22.532Z,11.50
2022-09-21T01:40:54.466Z,11.50
2022-09-21T01:43:26.096Z,11.50
2022-09-21T01:45:57.754Z,11.50
2022-09-21T01:48:27.198Z,11.50
2022-09-21T01:50:58.913Z,11.60
2022-09-21T01:53:33.365Z,11.50
2022-09-21T01:56:17.074Z,11.60
2022-09-21T01:58:57.718Z,11.50
2022-09-21T02:01:29.332Z,11.50
2022-09-21T02:04:03.969Z,11.50
2022-09-21T02:06:33.540Z,11.50
2022-09-21T02:09:02.159Z,11.50
2022-09-21T02:11:30.717Z,11.50
2022-09-21T02:13:59.430Z,11.50
2022-09-21T02:16:36.501Z,11.50
2022-09-21T02:19:37.286Z,11.70
2022-09-21T02:22:18.766Z,11.60
2022-09-21T02:24:53.273Z,11.70
2022-09-21T02:27:36.543Z,11.60
2022-09-21T02:30:11.076Z,11.60
2022-09-21T02:32:42.707Z,11.50
2022-09-21T02:35:15.984Z,11.50
2022-09-21T02:38:11.081Z,11.40
2022-09-21T02:40:57.933Z,11.40
2022-09-21T02:43:34.956Z,11.40
2022-09-21T02:46:18.592Z,11.30
2022-09-21T02:48:50.228Z,11.30
2022-09-21T02:51:21.937Z,11.30
2022-09-21T02:53:53.521Z,11.30
2022-09-21T02:56:42.926Z,11.30
2022-09-21T02:59:11.900Z,11.40
2022-09-21T03:01:42.027Z,11.40
2022-09-21T03:04:11.857Z,11.30
2022-09-21T03:06:41.375Z,11.30
2022-09-21T03:09:10.347Z,11.30
2022-09-21T03:11:39.145Z,11.30
2022-09-21T03:14:08.713Z,11.40
2022-09-21T03:16:38.792Z,11.30
2022-09-21T03:19:07.400Z,11.40
2022-09-21T03:21:36.054Z,11.30
2022-09-21T03:24:04.729Z,11.30
2022-09-21T03:26:33.507Z,11.20
2022-09-21T03:29:02.041Z,11.20
2022-09-21T03:31:32.022Z,11.30
2022-09-21T03:34:00.555Z,11.20
2022-09-21T03:36:29.083Z,11.30
2022-09-21T03:38:57.538Z,11.20
2022-09-21T03:41:26.689Z,11.30
2022-09-21T03:43:55.353Z,11.20
2022-09-21T03:46:24.788Z,11.10
2022-09-21T03:48:53.601Z,11.20
2022-09-21T03:51:22.277Z,11.10
2022-09-21T03:53:50.833Z,11.00
2022-09-21T03:56:19.372Z,10.90
2022-09-21T03:58:47.909Z,10.90
2022-09-21T04:01:16.576Z,10.80
2022-09-21T04:03:45.084Z,10.80
2022-09-21T04:06:14.288Z,10.60
2022-09-21T04:08:43.822Z,10.70
2022-09-21T04:11:18.505Z,10.60
2022-09-21T04:13:50.310Z,10.50
2022-09-21T04:16:18.922Z,10.50
2022-09-21T04:18:49.115Z,10.50
2022-09-21T04:21:19.299Z,10.40
2022-09-21T04:23:47.984Z,10.40
2022-09-21T04:26:46.326Z,10.40
2022-09-21T04:29:15.791Z,10.30
2022-09-21T04:31:45.325Z,10.30
2022-09-21T04:34:14.910Z,10.30
2022-09-21T04:36:43.543Z,10.30
2022-09-21T04:39:12.082Z,10.40
2022-09-21T04:41:41.980Z,10.30
2022-09-21T04:44:10.532Z,10.30
2022-09-21T04:46:39.078Z,10.30
2022-09-21T04:49:08.772Z,10.30
2022-09-21T04:51:37.734Z,10.20
2022-09-21T04:54:06.668Z,10.20
2022-09-21T04:56:35.645Z,10.10
2022-09-21T04:59:04.904Z,10.10
2022-09-21T05:01:33.809Z,10.20
2022-09-21T05:04:02.982Z,10.20
2022-09-21T05:06:33.115Z,10.20
2022-09-21T05:09:19.577Z,10.20
2022-09-21T05:11:48.281Z,10.00
2022-09-21T05:14:16.946Z,10.20
2022-09-21T05:16:47.167Z,10.20
2022-09-21T05:19:15.847Z,10.20
2022-09-21T05:21:44.533Z,10.20
2022-09-21T05:24:13.108Z,10.20
2022-09-21T05:26:41.633Z,10.20
2022-09-21T05:29:10.406Z,10.20
2022-09-21T05:32:02.823Z,10.20
2022-09-21T05:35:07.705Z,10.30
2022-09-21T05:37:45.046Z,10.20
2022-09-21T05:40:14.464Z,10.30
2022-09-21T05:42:43.260Z,10.30
2022-09-21T05:45:17.078Z,10.30
2022-09-21T05:47:51.561Z,10.40
2022-09-21T05:54:10.466Z,10.40
2022-09-21T05:57:05.730Z,10.50
2022-09-21T06:00:12.926Z,10.60
2022-09-21T06:03:07.224Z,10.60
2022-09-21T06:05:35.720Z,10.70
2022-09-21T06:08:04.342Z,10.70
2022-09-21T06:10:35.289Z,10.70
2022-09-21T06:13:03.898Z,10.80
2022-09-21T06:15:34.660Z,10.80
2022-09-21T06:18:03.205Z,11.20
2022-09-21T06:20:32.642Z,10.90
2022-09-21T06:23:09.091Z,11.00
2022-09-21T06:25:37.724Z,11.00
2022-09-21T06:28:08.101Z,11.10
2022-09-21T06:30:36.987Z,11.30
2022-09-21T06:33:07.463Z,11.40
2022-09-21T06:35:37.240Z,11.50
2022-09-21T06:38:08.443Z,11.60
2022-09-21T06:40:37.922Z,11.90
2022-09-21T06:43:06.605Z,12.30
2022-09-21T06:45:35.339Z,12.60
2022-09-21T06:48:04.022Z,13.10
2022-09-21T06:50:32.595Z,13.60
2022-09-21T06:53:02.640Z,14.00
2022-09-21T06:55:32.095Z,14.40
2022-09-21T06:58:05.967Z,14.70
2022-09-21T07:00:36.053Z,14.90
2022-09-21T07:03:03.805Z,15.20
2022-09-21T07:05:33.528Z,15.40
2022-09-21T07:08:01.416Z,15.60
2022-09-21T07:10:29.521Z,15.80
2022-09-21T07:12:59.899Z,15.90
2022-09-21T07:15:29.331Z,15.90
2022-09-21T07:18:05.442Z,16.00
2022-09-21T07:20:26.596Z,16.10
2022-09-21T07:22:55.529Z,16.20
2022-09-21T07:25:24.246Z,16.20
2022-09-21T07:27:59.014Z,16.30
2022-09-21T07:30:27.734Z,16.60
2022-09-21T07:32:56.295Z,17.00
2022-09-21T07:35:24.993Z,17.20
2022-09-21T07:37:53.711Z,17.50
2022-09-21T07:40:25.165Z,17.80
2022-09-21T07:42:52.590Z,18.00
2022-09-21T07:45:21.162Z,18.20
2022-09-21T07:47:49.699Z,18.60
2022-09-21T07:50:18.416Z,18.90
2022-09-21T07:52:47.111Z,19.10
2022-09-21T07:55:36.512Z,19.30
2022-09-21T07:58:22.989Z,19.50
2022-09-21T14:26:10.805Z,19.70
2022-09-21T14:28:42.369Z,23.60
2022-09-21T14:31:16.932Z,23.50
2022-09-21T14:33:53.417Z,23.40
2022-09-21T14:36:31.328Z,23.40
2022-09-21T14:39:02.933Z,23.40
2022-09-21T14:41:34.634Z,23.40
2022-09-21T14:44:03.305Z,23.40
2022-09-21T14:46:55.689Z,23.50
2022-09-21T14:49:43.213Z,23.50
2022-09-21T14:52:25.040Z,23.60
2022-09-21T14:55:15.736Z,23.50
2022-09-21T14:58:25.521Z,23.40
2022-09-21T15:00:54.677Z,23.30
2022-09-21T15:03:53.429Z,23.20
2022-09-21T15:06:53.987Z,23.10
2022-09-21T15:10:06.040Z,23.00
2022-09-21T15:13:01.355Z,22.90
2022-09-21T15:15:36.820Z,22.80
2022-09-21T15:18:19.001Z,22.60
2022-09-21T15:21:03.432Z,22.40
2022-09-21T15:23:40.024Z,22.20
2022-09-21T15:26:19.162Z,22.00
2022-09-21T15:29:09.275Z,21.90
2022-09-21T15:31:24.728Z,21.80
2022-09-21T15:33:54.714Z,21.70
2022-09-21T15:36:27.016Z,21.70
2022-09-21T15:38:58.026Z,21.70
2022-09-21T15:41:41.872Z,21.70
2022-09-21T15:44:27.984Z,21.70
2022-09-21T15:47:01.108Z,21.80
2022-09-21T15:49:30.994Z,21.80
2022-09-21T15:52:02.868Z,21.60
2022-09-21T15:54:39.988Z,21.60
2022-09-21T15:57:25.187Z,21.40
2022-09-21T15:59:54.236Z,21.50
2022-09-21T16:02:26.123Z,21.40
2022-09-21T16:04:55.050Z,21.50
2022-09-21T16:07:35.248Z,21.60
2022-09-21T16:10:07.028Z,21.80
2022-09-21T16:12:45.355Z,21.90
2022-09-21T16:15:34.416Z,22.00
2022-09-21T16:18:06.771Z,22.00
2022-09-21T16:21:08.339Z,22.00
2022-09-21T16:23:38.548Z,22.00
2022-09-21T16:26:07.725Z,22.00
2022-09-21T16:28:41.987Z,22.10
2022-09-21T16:31:26.799Z,22.20
2022-09-21T16:34:01.673Z,22.20
2022-09-21T16:36:33.280Z,22.30
2022-09-21T16:39:04.388Z,22.40
2022-09-21T16:41:46.650Z,22.40
2022-09-21T16:44:21.426Z,22.40
2022-09-21T16:46:59.070Z,22.50
2022-09-21T16:49:31.172Z,22.50
2022-09-21T16:52:00.170Z,22.50
2022-09-21T16:54:29.342Z,22.60
2022-09-21T16:57:00.311Z,22.70
2022-09-21T16:59:49.578Z,22.80
2022-09-21T17:02:19.732Z,22.80
2022-09-21T17:04:50.995Z,22.90
2022-09-21T17:07:19.929Z,22.90
2022-09-21T17:09:48.617Z,22.90
2022-09-21T17:12:18.769Z,22.90
2022-09-21T17:14:47.693Z,22.90
2022-09-21T17:17:22.342Z,22.90
2022-09-21T17:19:53.232Z,22.80
2022-09-21T17:22:22.419Z,22.70
2022-09-21T17:24:54.044Z,22.60
2022-09-21T17:27:26.561Z,22.50
2022-09-21T17:29:56.458Z,22.30
2022-09-21T17:32:25.918Z,22.20
2022-09-21T17:35:17.073Z,22.10
2022-09-21T17:37:46.219Z,22.00
2022-09-21T17:40:15.465Z,21.80
2022-09-21T17:42:46.867Z,21.60
2022-09-21T17:45:21.484Z,21.50
2022-09-21T17:47:50.397Z,21.30
2022-09-21T17:50:28.058Z,21.20
2022-09-21T17:53:15.676Z,21.10
2022-09-21T17:56:12.641Z,21.00
2022-09-21T17:58:44.334Z,20.80
2022-09-21T18:01:40.150Z,20.60
2022-09-21T18:04:13.814Z,20.30
2022-09-21T18:06:42.581Z,20.10
2022-09-21T18:09:13.382Z,19.80
2022-09-21T18:12:10.714Z,19.70
2022-09-21T18:14:52.505Z,19.50
2022-09-21T18:17:35.634Z,19.30
2022-09-21T18:20:18.163Z,19.10
2022-09-21T18:22:52.985Z,19.00
2022-09-21T18:25:24.603Z,18.80
2022-09-21T18:27:55.985Z,18.60
2022-09-21T18:30:26.314Z,18.50
2022-09-21T18:33:31.140Z,18.40
2022-09-21T18:36:11.579Z,18.30
2022-09-21T18:39:01.295Z,18.30
2022-09-21T18:41:35.415Z,18.20
2022-09-21T18:44:21.543Z,18.10
2022-09-21T18:47:01.895Z,18.00
2022-09-21T18:49:36.216Z,17.90
2022-09-21T18:52:35.881Z,17.80
2022-09-21T18:55:26.994Z,17.80
2022-09-21T18:57:57.294Z,17.70
2022-09-21T19:00:34.667Z,17.60
2022-09-21T19:03:23.656Z,17.60
2022-09-21T19:05:40.916Z,17.60
2022-09-21T19:08:20.952Z,17.50
2022-09-21T19:10:55.467Z,17.50
2022-09-21T19:13:38.577Z,17.40
2022-09-21T19:16:19.317Z,17.40
2022-09-21T19:18:59.842Z,17.30
2022-09-21T19:22:00.197Z,17.20
2022-09-21T19:24:50.103Z,17.20
2022-09-21T19:27:36.785Z,17.00
2022-09-21T19:30:12.824Z,17.00
2022-09-21T19:32:47.585Z,16.80
2022-09-21T19:35:22.543Z,16.80
2022-09-21T19:37:53.507Z,16.70
2022-09-21T19:40:24.941Z,16.70
2022-09-21T19:43:08.762Z,16.60
2022-09-21T19:46:01.594Z,16.50
2022-09-21T19:48:30.708Z,16.50
2022-09-21T19:50:59.898Z,16.40
2022-09-21T19:53:47.054Z,16.40
2022-09-21T19:56:36.045Z,16.30
2022-09-21T19:59:22.629Z,16.30
2022-09-21T20:02:02.590Z,16.20
2022-09-21T20:04:38.485Z,16.10
2022-09-21T20:07:13.234Z,16.10
2022-09-21T20:09:46.467Z,16.00
2022-09-21T20:12:26.981Z,15.90
2022-09-21T20:15:04.989Z,15.90
2022-09-21T20:17:52.149Z,15.90
2022-09-21T20:20:28.867Z,15.80
2022-09-21T20:22:59.370Z,15.70
2022-09-21T20:25:43.856Z,15.70
2022-09-21T20:28:20.734Z,15.60
2022-09-21T20:30:50.526Z,15.60
2022-09-21T20:33:22.929Z,15.50
2022-09-21T20:35:56.219Z,15.50
2022-09-21T20:38:27.142Z,15.40
2022-09-21T20:40:56.944Z,15.40
2022-09-21T20:43:31.731Z,15.30
2022-09-21T20:46:03.002Z,15.30
2022-09-21T20:48:37.599Z,15.20
2022-09-21T20:51:12.063Z,15.20
2022-09-21T20:53:44.491Z,15.10
2022-09-21T20:56:13.335Z,15.00
2022-09-21T20:58:50.367Z,15.00
2022-09-21T21:01:30.333Z,14.90
2022-09-21T21:04:02.894Z,14.90
2022-09-21T21:06:33.446Z,14.80
2022-09-21T21:09:07.407Z,14.80
2022-09-21T21:11:37.809Z,14.80
2022-09-21T21:14:06.371Z,14.70
2022-09-21T21:16:37.234Z,14.70
2022-09-21T21:19:13.556Z,14.70
2022-09-21T21:21:49.083Z,14.70
2022-09-21T21:24:46.110Z,14.60
2022-09-21T21:27:20.583Z,14.60
2022-09-21T21:29:53.618Z,14.60
2022-09-21T21:32:25.841Z,14.50
2022-09-21T21:34:56.810Z,14.50
2022-09-21T21:37:27.672Z,14.50
2022-09-21T21:39:57.587Z,14.40
2022-09-21T21:42:28.716Z,14.40
2022-09-21T21:44:56.508Z,14.40
2022-09-21T21:47:39.370Z,14.30
2022-09-21T21:49:55.464Z,14.30
2022-09-21T21:52:24.076Z,14.30
2022-09-21T21:54:52.636Z,14.20
2022-09-21T21:57:21.169Z,14.20
2022-09-21T21:59:49.709Z,14.10
2022-09-21T22:02:18.292Z,14.10
2022-09-21T22:04:46.829Z,14.10
2022-09-21T22:07:15.385Z,14.10
2022-09-21T22:09:43.977Z,14.00
2022-09-21T22:12:12.778Z,14.00
2022-09-21T22:14:41.300Z,14.00
2022-09-21T22:17:09.841Z,14.00
2022-09-21T22:19:38.399Z,13.90
2022-09-21T22:22:06.957Z,13.90
2022-09-21T22:24:35.525Z,13.80
2022-09-21T22:27:04.089Z,13.80
2022-09-21T22:29:32.645Z,13.80
2022-09-21T22:32:01.339Z,13.70
2022-09-21T22:34:30.600Z,13.70
2022-09-21T22:37:00.691Z,13.70
2022-09-21T22:39:29.320Z,13.70
2022-09-21T22:41:57.851Z,13.60
2022-09-21T22:44:26.404Z,13.60
2022-09-21T22:46:54.942Z,13.60
2022-09-21T22:49:23.491Z,13.50
2022-09-21T22:51:52.041Z,13.50
2022-09-21T22:54:20.606Z,13.40
2022-09-21T22:56:49.153Z,13.40
2022-09-21T22:59:17.707Z,13.30
2022-09-21T23:01:46.239Z,13.30
2022-09-21T23:04:15.013Z,13.20
2022-09-21T23:06:45.396Z,13.10
2022-09-21T23:09:16.868Z,13.10
2022-09-21T23:11:47.939Z,13.10
2022-09-21T23:14:17.833Z,13.00
2022-09-21T23:16:46.803Z,13.00
2022-09-21T23:19:15.969Z,13.00
2022-09-21T23:21:49.691Z,12.90
2022-09-21T23:24:19.147Z,12.90
2022-09-21T23:26:50.411Z,12.90
2022-09-21T23:29:19.106Z,12.90
2022-09-21T23:31:47.938Z,12.80
2022-09-21T23:34:16.746Z,12.80
2022-09-21T23:36:46.285Z,12.70
2022-09-21T23:39:16.075Z,12.70
2022-09-21T23:41:45.164Z,12.70
2022-09-21T23:44:13.943Z,12.70
2022-09-21T23:46:42.798Z,12.70
2022-09-21T23:49:11.460Z,12.60
2022-09-21T23:51:40.445Z,12.60
2022-09-21T23:54:09.446Z,12.60
2022-09-21T23:56:38.056Z,12.60
2022-09-21T23:59:06.597Z,12.50
